sensor_id;sensor_type;location;lat;lon;timestamp;pressure;altitude;pressure_sealevel;temperature;humidity
740;BME280;354;42.694;23.336;2023-02-22T00:01:59;95275.88;;;6.56;98.75
740;BME280;354;42.694;23.336;2023-02-22T00:04:49;95271.75;;;6.47;100.00
740;BME280;354;42.694;23.336;2023-02-22T00:07:14;95238.94;;;6.23;100.00
740;BME280;354;42.694;23.336;2023-02-22T00:09:40;95265.91;;;6.45;100.00
740;BME280;354;42.694;23.336;2023-02-22T00:12:05;95259.56;;;6.32;100.00
740;BME280;354;42.694;23.336;2023-02-22T00:14:32;95263.91;;;6.47;100.00
740;BME280;354;42.694;23.336;2023-02-22T00:16:58;95242.56;;;6.22;100.00
740;BME280;354;42.694;23.336;2023-02-22T00:19:23;95270.28;;;6.23;100.00
740;BME280;354;42.694;23.336;2023-02-22T00:21:51;95253.28;;;6.12;100.00
740;BME280;354;42.694;23.336;2023-02-22T00:24:17;95264.63;;;6.19;100.00
740;BME280;354;42.694;23.336;2023-02-22T00:26:51;95266.34;;;6.12;100.00
740;BME280;354;42.694;23.336;2023-02-22T00:29:16;95270.38;;;6.15;100.00
740;BME280;354;42.694;23.336;2023-02-22T00:31:41;95248.88;;;5.98;100.00
740;BME280;354;42.694;23.336;2023-02-22T00:34:07;95266.28;;;6.05;100.00
740;BME280;354;42.694;23.336;2023-02-22T00:36:32;95263.81;;;6.04;100.00
740;BME280;354;42.694;23.336;2023-02-22T00:38:58;95261.94;;;5.98;100.00
740;BME280;354;42.694;23.336;2023-02-22T00:41:23;95256.53;;;5.85;100.00
740;BME280;354;42.694;23.336;2023-02-22T00:43:48;95267.31;;;5.81;100.00
740;BME280;354;42.694;23.336;2023-02-22T00:46:14;95256.34;;;5.86;100.00
740;BME280;354;42.694;23.336;2023-02-22T00:48:39;95250.69;;;5.82;100.00
740;BME280;354;42.694;23.336;2023-02-22T00:51:05;95250.25;;;5.94;100.00
740;BME280;354;42.694;23.336;2023-02-22T00:53:30;95234.56;;;5.79;100.00
740;BME280;354;42.694;23.336;2023-02-22T00:55:55;95230.88;;;5.73;100.00
740;BME280;354;42.694;23.336;2023-02-22T00:58:21;95245.09;;;5.86;100.00
740;BME280;354;42.694;23.336;2023-02-22T01:00:48;95238.97;;;5.78;100.00
740;BME280;354;42.694;23.336;2023-02-22T01:03:16;95233.94;;;5.77;100.00
740;BME280;354;42.694;23.336;2023-02-22T01:05:42;95234.50;;;5.72;100.00
740;BME280;354;42.694;23.336;2023-02-22T01:08:09;95226.81;;;5.71;100.00
740;BME280;354;42.694;23.336;2023-02-22T01:10:35;95244.66;;;5.67;100.00
740;BME280;354;42.694;23.336;2023-02-22T01:13:01;95230.59;;;5.53;100.00
740;BME280;354;42.694;23.336;2023-02-22T01:15:33;95239.94;;;5.48;100.00
740;BME280;354;42.694;23.336;2023-02-22T01:17:59;95216.84;;;5.30;100.00
740;BME280;354;42.694;23.336;2023-02-22T01:20:26;95236.28;;;5.57;100.00
740;BME280;354;42.694;23.336;2023-02-22T01:22:55;95219.34;;;5.53;100.00
740;BME280;354;42.694;23.336;2023-02-22T01:25:23;95234.00;;;5.54;100.00
740;BME280;354;42.694;23.336;2023-02-22T01:27:50;95232.31;;;5.61;100.00
740;BME280;354;42.694;23.336;2023-02-22T01:30:21;95229.44;;;5.56;100.00
740;BME280;354;42.694;23.336;2023-02-22T01:32:48;95210.00;;;5.44;100.00
740;BME280;354;42.694;23.336;2023-02-22T01:35:17;95231.69;;;5.59;100.00
740;BME280;354;42.694;23.336;2023-02-22T01:37:43;95229.06;;;5.59;100.00
740;BME280;354;42.694;23.336;2023-02-22T01:40:13;95234.47;;;5.58;100.00
740;BME280;354;42.694;23.336;2023-02-22T01:42:40;95226.84;;;5.56;100.00
740;BME280;354;42.694;23.336;2023-02-22T01:47:56;95231.41;;;5.54;100.00
740;BME280;354;42.694;23.336;2023-02-22T01:50:22;95228.25;;;5.44;100.00
740;BME280;354;42.694;23.336;2023-02-22T01:52:48;95224.47;;;5.32;100.00
740;BME280;354;42.694;23.336;2023-02-22T01:55:14;95222.84;;;5.31;100.00
740;BME280;354;42.694;23.336;2023-02-22T01:57:41;95221.78;;;5.25;100.00
740;BME280;354;42.694;23.336;2023-02-22T02:00:10;95232.09;;;5.18;100.00
740;BME280;354;42.694;23.336;2023-02-22T02:02:40;95232.19;;;5.25;100.00
740;BME280;354;42.694;23.336;2023-02-22T02:05:07;95233.63;;;5.13;100.00
740;BME280;354;42.694;23.336;2023-02-22T02:07:34;95237.09;;;5.05;100.00
740;BME280;354;42.694;23.336;2023-02-22T02:10:04;95232.25;;;5.02;100.00
740;BME280;354;42.694;23.336;2023-02-22T02:12:33;95239.47;;;5.15;100.00
740;BME280;354;42.694;23.336;2023-02-22T02:17:49;95238.31;;;5.32;100.00
740;BME280;354;42.694;23.336;2023-02-22T02:23:22;95240.13;;;5.32;100.00
740;BME280;354;42.694;23.336;2023-02-22T02:42:56;95230.50;;;4.57;100.00
740;BME280;354;42.694;23.336;2023-02-22T02:45:29;95248.03;;;4.63;100.00
740;BME280;354;42.694;23.336;2023-02-22T02:47:58;95246.88;;;4.65;100.00
740;BME280;354;42.694;23.336;2023-02-22T02:50:30;95247.16;;;4.47;100.00
740;BME280;354;42.694;23.336;2023-02-22T02:53:00;95250.91;;;4.45;100.00
740;BME280;354;42.694;23.336;2023-02-22T02:55:29;95256.97;;;4.37;100.00
740;BME280;354;42.694;23.336;2023-02-22T02:57:55;95259.47;;;4.31;100.00
740;BME280;354;42.694;23.336;2023-02-22T03:00:24;95267.56;;;4.36;100.00
740;BME280;354;42.694;23.336;2023-02-22T03:08:07;95259.78;;;4.28;100.00
740;BME280;354;42.694;23.336;2023-02-22T03:10:46;95271.84;;;4.29;100.00
740;BME280;354;42.694;23.336;2023-02-22T03:16:11;95262.19;;;4.37;100.00
740;BME280;354;42.694;23.336;2023-02-22T03:19:00;95256.47;;;4.42;100.00
740;BME280;354;42.694;23.336;2023-02-22T03:24:25;95259.09;;;4.34;100.00
740;BME280;354;42.694;23.336;2023-02-22T03:27:00;95255.84;;;4.40;100.00
740;BME280;354;42.694;23.336;2023-02-22T03:29:30;95262.31;;;4.44;100.00
740;BME280;354;42.694;23.336;2023-02-22T03:32:02;95235.03;;;4.32;100.00
740;BME280;354;42.694;23.336;2023-02-22T03:34:40;95259.47;;;4.54;100.00
740;BME280;354;42.694;23.336;2023-02-22T03:39:39;95257.50;;;4.56;100.00
740;BME280;354;42.694;23.336;2023-02-22T03:42:13;95249.84;;;4.62;100.00
740;BME280;354;42.694;23.336;2023-02-22T03:44:42;95254.50;;;4.67;100.00
740;BME280;354;42.694;23.336;2023-02-22T03:47:12;95255.66;;;4.64;100.00
740;BME280;354;42.694;23.336;2023-02-22T03:49:54;95262.09;;;4.76;100.00
740;BME280;354;42.694;23.336;2023-02-22T03:52:22;95234.50;;;4.67;100.00
740;BME280;354;42.694;23.336;2023-02-22T03:54:49;95237.66;;;4.78;100.00
740;BME280;354;42.694;23.336;2023-02-22T03:57:27;95252.47;;;4.77;100.00
740;BME280;354;42.694;23.336;2023-02-22T03:59:53;95256.19;;;4.83;100.00
740;BME280;354;42.694;23.336;2023-02-22T04:02:19;95256.34;;;4.81;100.00
740;BME280;354;42.694;23.336;2023-02-22T04:04:45;95250.22;;;4.97;100.00
740;BME280;354;42.694;23.336;2023-02-22T04:07:11;95255.25;;;4.98;100.00
740;BME280;354;42.694;23.336;2023-02-22T04:09:36;95255.22;;;4.84;100.00
740;BME280;354;42.694;23.336;2023-02-22T04:12:02;95258.78;;;4.83;100.00
740;BME280;354;42.694;23.336;2023-02-22T04:14:28;95260.44;;;4.84;100.00
740;BME280;354;42.694;23.336;2023-02-22T04:16:53;95252.66;;;4.75;100.00
740;BME280;354;42.694;23.336;2023-02-22T04:19:19;95265.28;;;4.87;100.00
740;BME280;354;42.694;23.336;2023-02-22T04:21:45;95257.41;;;4.72;100.00
740;BME280;354;42.694;23.336;2023-02-22T04:24:10;95252.38;;;4.70;100.00
740;BME280;354;42.694;23.336;2023-02-22T04:26:36;95261.94;;;4.78;100.00
740;BME280;354;42.694;23.336;2023-02-22T04:29:02;95260.66;;;4.74;100.00
740;BME280;354;42.694;23.336;2023-02-22T04:31:28;95253.56;;;4.60;100.00
740;BME280;354;42.694;23.336;2023-02-22T04:33:54;95262.69;;;4.64;100.00
740;BME280;354;42.694;23.336;2023-02-22T04:36:19;95260.97;;;4.48;100.00
740;BME280;354;42.694;23.336;2023-02-22T04:38:46;95272.31;;;4.55;100.00
740;BME280;354;42.694;23.336;2023-02-22T04:41:12;95251.94;;;4.36;100.00
740;BME280;354;42.694;23.336;2023-02-22T04:43:37;95260.66;;;4.51;100.00
740;BME280;354;42.694;23.336;2023-02-22T04:46:03;95261.31;;;4.45;100.00
740;BME280;354;42.694;23.336;2023-02-22T04:48:28;95272.13;;;4.34;100.00
740;BME280;354;42.694;23.336;2023-02-22T04:50:54;95266.03;;;4.18;100.00
740;BME280;354;42.694;23.336;2023-02-22T04:53:20;95271.09;;;4.12;100.00
740;BME280;354;42.694;23.336;2023-02-22T04:55:46;95259.63;;;3.90;100.00
740;BME280;354;42.694;23.336;2023-02-22T04:58:11;95267.75;;;3.95;100.00
740;BME280;354;42.694;23.336;2023-02-22T05:00:36;95266.41;;;4.07;100.00
740;BME280;354;42.694;23.336;2023-02-22T05:03:02;95280.38;;;4.14;100.00
740;BME280;354;42.694;23.336;2023-02-22T05:05:28;95272.59;;;4.06;100.00
740;BME280;354;42.694;23.336;2023-02-22T05:07:53;95274.91;;;4.01;100.00
740;BME280;354;42.694;23.336;2023-02-22T05:10:19;95270.25;;;3.80;100.00
740;BME280;354;42.694;23.336;2023-02-22T05:12:44;95280.69;;;3.72;100.00
740;BME280;354;42.694;23.336;2023-02-22T05:15:10;95273.19;;;3.77;100.00
740;BME280;354;42.694;23.336;2023-02-22T05:17:35;95272.69;;;3.82;100.00
740;BME280;354;42.694;23.336;2023-02-22T05:20:02;95283.78;;;3.76;100.00
740;BME280;354;42.694;23.336;2023-02-22T05:22:28;95282.66;;;3.70;100.00
740;BME280;354;42.694;23.336;2023-02-22T05:24:54;95277.47;;;3.62;100.00
740;BME280;354;42.694;23.336;2023-02-22T05:27:21;95285.56;;;3.67;100.00
740;BME280;354;42.694;23.336;2023-02-22T05:29:46;95272.09;;;3.63;100.00
740;BME280;354;42.694;23.336;2023-02-22T05:32:12;95297.06;;;3.89;100.00
740;BME280;354;42.694;23.336;2023-02-22T05:34:37;95299.50;;;3.82;100.00
740;BME280;354;42.694;23.336;2023-02-22T05:37:03;95299.50;;;3.90;100.00
740;BME280;354;42.694;23.336;2023-02-22T05:39:29;95293.47;;;3.90;100.00
740;BME280;354;42.694;23.336;2023-02-22T05:41:55;95304.81;;;4.05;100.00
740;BME280;354;42.694;23.336;2023-02-22T05:44:20;95293.41;;;4.06;100.00
740;BME280;354;42.694;23.336;2023-02-22T05:46:46;95290.16;;;4.12;100.00
740;BME280;354;42.694;23.336;2023-02-22T05:49:11;95311.41;;;4.24;100.00
740;BME280;354;42.694;23.336;2023-02-22T05:51:36;95311.06;;;4.27;100.00
740;BME280;354;42.694;23.336;2023-02-22T05:54:02;95321.75;;;4.40;100.00
740;BME280;354;42.694;23.336;2023-02-22T05:56:28;95317.66;;;4.46;100.00
740;BME280;354;42.694;23.336;2023-02-22T05:58:54;95322.38;;;4.73;100.00
740;BME280;354;42.694;23.336;2023-02-22T06:01:21;95316.09;;;4.83;100.00
740;BME280;354;42.694;23.336;2023-02-22T06:03:48;95328.22;;;4.98;100.00
740;BME280;354;42.694;23.336;2023-02-22T06:06:14;95328.81;;;5.09;100.00
740;BME280;354;42.694;23.336;2023-02-22T06:08:40;95327.78;;;5.18;100.00
740;BME280;354;42.694;23.336;2023-02-22T06:11:05;95319.00;;;5.34;100.00
740;BME280;354;42.694;23.336;2023-02-22T06:13:30;95329.53;;;5.40;100.00
740;BME280;354;42.694;23.336;2023-02-22T06:15:56;95315.22;;;5.36;100.00
740;BME280;354;42.694;23.336;2023-02-22T06:18:22;95324.63;;;5.60;100.00
740;BME280;354;42.694;23.336;2023-02-22T06:20:50;95317.44;;;5.62;100.00
740;BME280;354;42.694;23.336;2023-02-22T06:23:16;95316.72;;;5.68;100.00
740;BME280;354;42.694;23.336;2023-02-22T06:25:41;95307.91;;;5.69;100.00
740;BME280;354;42.694;23.336;2023-02-22T06:28:07;95315.03;;;5.90;100.00
740;BME280;354;42.694;23.336;2023-02-22T06:30:33;95315.94;;;5.97;100.00
740;BME280;354;42.694;23.336;2023-02-22T06:32:59;95326.41;;;6.12;100.00
740;BME280;354;42.694;23.336;2023-02-22T06:35:25;95292.47;;;6.12;100.00
740;BME280;354;42.694;23.336;2023-02-22T06:37:50;95320.97;;;6.43;100.00
740;BME280;354;42.694;23.336;2023-02-22T06:40:15;95320.94;;;6.58;100.00
740;BME280;354;42.694;23.336;2023-02-22T06:42:41;95322.97;;;6.77;100.00
740;BME280;354;42.694;23.336;2023-02-22T06:45:07;95331.31;;;6.88;100.00
740;BME280;354;42.694;23.336;2023-02-22T06:47:37;95325.22;;;7.02;100.00
740;BME280;354;42.694;23.336;2023-02-22T06:50:03;95328.94;;;7.14;100.00
740;BME280;354;42.694;23.336;2023-02-22T06:52:29;95309.53;;;7.23;100.00
740;BME280;354;42.694;23.336;2023-02-22T06:54:54;95326.97;;;7.37;100.00
740;BME280;354;42.694;23.336;2023-02-22T06:57:19;95321.22;;;7.49;100.00
740;BME280;354;42.694;23.336;2023-02-22T06:59:45;95324.09;;;7.54;100.00
740;BME280;354;42.694;23.336;2023-02-22T07:02:11;95314.03;;;7.57;100.00
740;BME280;354;42.694;23.336;2023-02-22T07:04:37;95328.56;;;7.60;100.00
740;BME280;354;42.694;23.336;2023-02-22T07:07:02;95301.59;;;7.38;100.00
740;BME280;354;42.694;23.336;2023-02-22T07:09:28;95328.13;;;7.56;100.00
740;BME280;354;42.694;23.336;2023-02-22T07:11:54;95330.88;;;7.48;100.00
740;BME280;354;42.694;23.336;2023-02-22T07:14:20;95328.44;;;7.47;100.00
740;BME280;354;42.694;23.336;2023-02-22T07:16:46;95331.28;;;7.52;100.00
740;BME280;354;42.694;23.336;2023-02-22T07:19:11;95319.59;;;7.48;100.00
740;BME280;354;42.694;23.336;2023-02-22T07:21:36;95308.81;;;7.36;100.00
740;BME280;354;42.694;23.336;2023-02-22T07:24:02;95333.88;;;7.45;100.00
740;BME280;354;42.694;23.336;2023-02-22T07:26:27;95335.13;;;7.49;100.00
740;BME280;354;42.694;23.336;2023-02-22T07:28:53;95313.69;;;7.39;100.00
740;BME280;354;42.694;23.336;2023-02-22T07:31:18;95333.66;;;7.47;100.00
740;BME280;354;42.694;23.336;2023-02-22T07:33:47;95320.91;;;7.58;100.00
740;BME280;354;42.694;23.336;2023-02-22T07:36:14;95322.56;;;7.66;100.00
740;BME280;354;42.694;23.336;2023-02-22T07:38:43;95317.47;;;7.86;100.00
740;BME280;354;42.694;23.336;2023-02-22T07:41:09;95302.38;;;7.88;100.00
740;BME280;354;42.694;23.336;2023-02-22T07:43:35;95310.72;;;8.05;100.00
740;BME280;354;42.694;23.336;2023-02-22T07:46:01;95319.53;;;8.32;100.00
740;BME280;354;42.694;23.336;2023-02-22T07:48:29;95308.94;;;8.47;100.00
740;BME280;354;42.694;23.336;2023-02-22T07:50:54;95308.94;;;8.47;98.23
740;BME280;354;42.694;23.336;2023-02-22T07:53:28;95313.88;;;8.69;97.06
740;BME280;354;42.694;23.336;2023-02-22T07:55:59;95312.72;;;8.92;96.25
740;BME280;354;42.694;23.336;2023-02-22T07:58:26;95309.88;;;8.93;95.00
740;BME280;354;42.694;23.336;2023-02-22T08:00:52;95307.31;;;9.13;94.31
740;BME280;354;42.694;23.336;2023-02-22T08:03:19;95311.56;;;9.28;93.31
740;BME280;354;42.694;23.336;2023-02-22T08:05:48;95308.16;;;9.40;91.73
740;BME280;354;42.694;23.336;2023-02-22T08:08:14;95311.38;;;9.49;91.34
740;BME280;354;42.694;23.336;2023-02-22T08:10:41;95313.19;;;9.62;90.39
740;BME280;354;42.694;23.336;2023-02-22T08:13:07;95303.09;;;9.59;88.53
740;BME280;354;42.694;23.336;2023-02-22T08:15:35;95301.06;;;9.67;87.96
740;BME280;354;42.694;23.336;2023-02-22T08:18:03;95301.25;;;9.86;88.72
740;BME280;354;42.694;23.336;2023-02-22T08:20:30;95300.84;;;9.95;86.81
740;BME280;354;42.694;23.336;2023-02-22T08:22:56;95300.41;;;10.12;86.13
740;BME280;354;42.694;23.336;2023-02-22T08:25:25;95300.59;;;10.23;85.02
740;BME280;354;42.694;23.336;2023-02-22T08:27:51;95302.78;;;10.33;84.84
740;BME280;354;42.694;23.336;2023-02-22T08:30:23;95291.63;;;10.44;84.38
740;BME280;354;42.694;23.336;2023-02-22T08:32:49;95292.81;;;10.48;82.60
740;BME280;354;42.694;23.336;2023-02-22T08:35:17;95277.22;;;10.53;82.45
740;BME280;354;42.694;23.336;2023-02-22T08:37:44;95293.72;;;10.74;80.80
740;BME280;354;42.694;23.336;2023-02-22T08:40:11;95284.34;;;10.85;80.52
740;BME280;354;42.694;23.336;2023-02-22T08:42:36;95282.66;;;10.97;78.32
740;BME280;354;42.694;23.336;2023-02-22T08:45:02;95287.19;;;11.15;77.33
740;BME280;354;42.694;23.336;2023-02-22T08:47:27;95283.69;;;11.27;76.01
740;BME280;354;42.694;23.336;2023-02-22T08:49:53;95292.97;;;11.30;75.68
740;BME280;354;42.694;23.336;2023-02-22T08:52:19;95284.69;;;11.51;75.15
740;BME280;354;42.694;23.336;2023-02-22T08:54:46;95285.25;;;11.60;74.64
740;BME280;354;42.694;23.336;2023-02-22T08:57:11;95280.00;;;11.78;73.92
740;BME280;354;42.694;23.336;2023-02-22T08:59:37;95254.44;;;11.85;73.25
740;BME280;354;42.694;23.336;2023-02-22T09:02:02;95273.72;;;12.04;72.77
740;BME280;354;42.694;23.336;2023-02-22T09:04:27;95274.44;;;12.30;72.71
740;BME280;354;42.694;23.336;2023-02-22T09:06:53;95273.41;;;12.49;72.45
740;BME280;354;42.694;23.336;2023-02-22T09:09:19;95271.06;;;12.59;71.85
740;BME280;354;42.694;23.336;2023-02-22T09:11:46;95265.50;;;12.79;71.66
740;BME280;354;42.694;23.336;2023-02-22T09:14:12;95268.69;;;13.00;70.90
740;BME280;354;42.694;23.336;2023-02-22T09:16:39;95265.91;;;12.95;70.13
740;BME280;354;42.694;23.336;2023-02-22T09:19:04;95256.63;;;12.92;70.06
740;BME280;354;42.694;23.336;2023-02-22T09:21:30;95257.13;;;13.12;69.67
740;BME280;354;42.694;23.336;2023-02-22T09:23:56;95268.91;;;13.28;69.23
740;BME280;354;42.694;23.336;2023-02-22T09:26:21;95252.38;;;13.33;68.51
740;BME280;354;42.694;23.336;2023-02-22T09:28:52;95238.72;;;13.24;68.46
740;BME280;354;42.694;23.336;2023-02-22T09:31:17;95251.16;;;13.47;68.53
740;BME280;354;42.694;23.336;2023-02-22T09:33:42;95254.59;;;13.59;67.60
740;BME280;354;42.694;23.336;2023-02-22T09:36:09;95260.94;;;13.58;67.20
740;BME280;354;42.694;23.336;2023-02-22T09:38:34;95254.72;;;13.64;66.66
740;BME280;354;42.694;23.336;2023-02-22T09:46:17;95253.78;;;13.94;65.35
740;BME280;354;42.694;23.336;2023-02-22T09:49:02;95250.59;;;13.92;64.53
740;BME280;354;42.694;23.336;2023-02-22T09:51:38;95242.28;;;14.00;63.61
740;BME280;354;42.694;23.336;2023-02-22T09:54:13;95244.38;;;13.98;63.33
740;BME280;354;42.694;23.336;2023-02-22T09:56:44;95237.22;;;14.10;63.31
740;BME280;354;42.694;23.336;2023-02-22T09:59:14;95227.66;;;14.21;63.44
740;BME280;354;42.694;23.336;2023-02-22T10:01:47;95231.69;;;14.23;62.43
740;BME280;354;42.694;23.336;2023-02-22T10:07:04;95237.78;;;14.24;60.81
740;BME280;354;42.694;23.336;2023-02-22T10:09:37;95223.28;;;14.27;61.12
740;BME280;354;42.694;23.336;2023-02-22T10:12:27;95218.56;;;14.29;60.78
740;BME280;354;42.694;23.336;2023-02-22T10:17:55;95215.66;;;14.42;61.48
740;BME280;354;42.694;23.336;2023-02-22T10:20:46;95216.78;;;14.58;61.88
740;BME280;354;42.694;23.336;2023-02-22T10:25:57;95198.84;;;14.76;60.52
740;BME280;354;42.694;23.336;2023-02-22T10:28:51;95190.44;;;14.80;59.88
740;BME280;354;42.694;23.336;2023-02-22T10:31:31;95172.88;;;14.73;59.61
740;BME280;354;42.694;23.336;2023-02-22T10:34:00;95188.53;;;14.92;59.69
740;BME280;354;42.694;23.336;2023-02-22T10:36:26;95182.91;;;14.88;59.28
740;BME280;354;42.694;23.336;2023-02-22T10:39:00;95172.97;;;14.95;59.07
740;BME280;354;42.694;23.336;2023-02-22T10:41:30;95168.56;;;15.01;59.42
740;BME280;354;42.694;23.336;2023-02-22T10:43:56;95163.75;;;15.15;59.12
740;BME280;354;42.694;23.336;2023-02-22T10:46:22;95170.97;;;15.19;57.96
740;BME280;354;42.694;23.336;2023-02-22T10:48:51;95161.97;;;15.20;56.57
740;BME280;354;42.694;23.336;2023-02-22T10:51:19;95154.59;;;15.22;56.39
740;BME280;354;42.694;23.336;2023-02-22T10:53:57;95152.66;;;15.35;56.78
740;BME280;354;42.694;23.336;2023-02-22T10:56:24;95152.34;;;15.31;56.07
740;BME280;354;42.694;23.336;2023-02-22T10:59:00;95145.25;;;15.37;56.35
740;BME280;354;42.694;23.336;2023-02-22T11:06:24;95138.44;;;15.41;55.27
740;BME280;354;42.694;23.336;2023-02-22T11:08:50;95135.88;;;15.46;55.65
740;BME280;354;42.694;23.336;2023-02-22T11:11:22;95139.06;;;15.48;55.68
740;BME280;354;42.694;23.336;2023-02-22T11:13:53;95114.25;;;15.37;55.69
740;BME280;354;42.694;23.336;2023-02-22T11:16:36;95125.59;;;15.49;55.77
740;BME280;354;42.694;23.336;2023-02-22T11:21:40;95122.94;;;15.66;55.66
740;BME280;354;42.694;23.336;2023-02-22T11:24:08;95099.75;;;15.62;55.43
740;BME280;354;42.694;23.336;2023-02-22T11:26:45;95116.72;;;15.77;54.72
740;BME280;354;42.694;23.336;2023-02-22T11:29:25;95111.69;;;15.81;54.25
740;BME280;354;42.694;23.336;2023-02-22T11:31:52;95103.38;;;15.94;53.27
740;BME280;354;42.694;23.336;2023-02-22T11:34:34;95097.56;;;15.97;52.16
740;BME280;354;42.694;23.336;2023-02-22T11:40:22;95097.94;;;16.06;52.00
740;BME280;354;42.694;23.336;2023-02-22T11:42:49;95084.97;;;16.10;52.24
740;BME280;354;42.694;23.336;2023-02-22T11:45:30;95071.97;;;16.08;51.92
740;BME280;354;42.694;23.336;2023-02-22T11:48:00;95085.59;;;16.17;50.90
740;BME280;354;42.694;23.336;2023-02-22T11:55:40;95076.44;;;16.29;50.46
740;BME280;354;42.694;23.336;2023-02-22T12:01:42;95078.03;;;16.30;49.90
740;BME280;354;42.694;23.336;2023-02-22T12:07:16;95071.72;;;16.37;49.55
740;BME280;354;42.694;23.336;2023-02-22T12:10:16;95065.56;;;16.31;49.12
740;BME280;354;42.694;23.336;2023-02-22T12:13:16;95058.16;;;16.33;49.51
740;BME280;354;42.694;23.336;2023-02-22T12:21:15;95054.56;;;16.44;48.23
740;BME280;354;42.694;23.336;2023-02-22T12:23:49;95050.63;;;16.52;48.01
740;BME280;354;42.694;23.336;2023-02-22T12:26:31;95049.06;;;16.56;47.66
740;BME280;354;42.694;23.336;2023-02-22T12:32:10;95048.81;;;16.57;47.28
740;BME280;354;42.694;23.336;2023-02-22T12:34:47;95046.91;;;16.53;47.30
740;BME280;354;42.694;23.336;2023-02-22T12:40:05;95034.69;;;16.52;47.11
740;BME280;354;42.694;23.336;2023-02-22T12:45:34;95036.22;;;16.43;46.73
740;BME280;354;42.694;23.336;2023-02-22T12:48:24;95036.41;;;16.36;46.16
740;BME280;354;42.694;23.336;2023-02-22T12:50:58;95035.16;;;16.44;46.21
740;BME280;354;42.694;23.336;2023-02-22T12:53:27;95027.16;;;16.39;46.18
740;BME280;354;42.694;23.336;2023-02-22T12:56:20;95024.50;;;16.39;45.95
740;BME280;354;42.694;23.336;2023-02-22T13:01:24;95022.34;;;16.36;46.12
740;BME280;354;42.694;23.336;2023-02-22T13:03:54;95025.31;;;16.39;45.73
740;BME280;354;42.694;23.336;2023-02-22T13:14:48;95018.66;;;16.42;45.60
740;BME280;354;42.694;23.336;2023-02-22T13:17:39;95014.72;;;16.44;44.73
740;BME280;354;42.694;23.336;2023-02-22T13:20:33;95015.56;;;16.50;45.60
740;BME280;354;42.694;23.336;2023-02-22T13:23:05;95023.00;;;16.53;45.55
740;BME280;354;42.694;23.336;2023-02-22T13:25:54;95016.16;;;16.57;45.86
740;BME280;354;42.694;23.336;2023-02-22T13:31:12;95013.28;;;16.64;46.02
740;BME280;354;42.694;23.336;2023-02-22T13:43:01;95002.50;;;16.75;45.34
740;BME280;354;42.694;23.336;2023-02-22T13:51:30;95002.47;;;16.70;45.17
740;BME280;354;42.694;23.336;2023-02-22T13:54:02;95009.06;;;16.68;45.36
740;BME280;354;42.694;23.336;2023-02-22T13:56:30;95002.91;;;16.62;45.28
740;BME280;354;42.694;23.336;2023-02-22T13:58:59;94999.91;;;16.53;44.78
740;BME280;354;42.694;23.336;2023-02-22T14:01:46;95003.69;;;16.57;44.72
740;BME280;354;42.694;23.336;2023-02-22T14:04:21;94993.34;;;16.61;44.82
740;BME280;354;42.694;23.336;2023-02-22T14:09:50;94996.22;;;16.54;44.99
740;BME280;354;42.694;23.336;2023-02-22T14:18:03;95003.22;;;16.66;45.33
740;BME280;354;42.694;23.336;2023-02-22T14:20:33;95005.00;;;16.55;45.45
740;BME280;354;42.694;23.336;2023-02-22T14:25:50;94987.38;;;16.44;45.39
740;BME280;354;42.694;23.336;2023-02-22T14:28:36;95001.72;;;16.48;45.46
740;BME280;354;42.694;23.336;2023-02-22T14:31:11;95005.72;;;16.45;45.62
740;BME280;354;42.694;23.336;2023-02-22T14:36:34;95003.53;;;16.42;44.71
740;BME280;354;42.694;23.336;2023-02-22T14:39:09;95003.00;;;16.40;44.20
740;BME280;354;42.694;23.336;2023-02-22T14:41:40;94984.38;;;16.35;44.32
740;BME280;354;42.694;23.336;2023-02-22T14:44:08;94992.44;;;16.45;44.50
740;BME280;354;42.694;23.336;2023-02-22T14:46:39;94977.22;;;16.36;44.65
740;BME280;354;42.694;23.336;2023-02-22T14:49:09;94996.94;;;16.45;43.61
740;BME280;354;42.694;23.336;2023-02-22T14:51:47;94983.84;;;16.33;43.68
740;BME280;354;42.694;23.336;2023-02-22T15:00:03;94996.84;;;16.34;44.40
740;BME280;354;42.694;23.336;2023-02-22T15:02:44;95000.25;;;16.30;44.30
740;BME280;354;42.694;23.336;2023-02-22T15:05:13;94997.28;;;16.21;44.47
740;BME280;354;42.694;23.336;2023-02-22T15:07:38;94996.97;;;16.18;44.93
740;BME280;354;42.694;23.336;2023-02-22T15:10:10;94999.31;;;16.14;45.80
740;BME280;354;42.694;23.336;2023-02-22T15:15:21;94994.00;;;16.14;47.62
740;BME280;354;42.694;23.336;2023-02-22T15:17:52;94981.09;;;15.96;47.92
740;BME280;354;42.694;23.336;2023-02-22T15:20:19;94996.03;;;16.02;48.35
740;BME280;354;42.694;23.336;2023-02-22T15:22:45;94991.78;;;16.01;49.04
740;BME280;354;42.694;23.336;2023-02-22T15:25:12;94989.59;;;15.98;49.47
740;BME280;354;42.694;23.336;2023-02-22T15:27:39;94985.25;;;15.87;50.22
740;BME280;354;42.694;23.336;2023-02-22T15:30:23;95002.41;;;15.79;50.82
740;BME280;354;42.694;23.336;2023-02-22T15:32:51;94996.06;;;15.80;51.13
740;BME280;354;42.694;23.336;2023-02-22T15:35:17;94991.38;;;15.65;51.68
740;BME280;354;42.694;23.336;2023-02-22T15:37:44;94992.22;;;15.66;51.89
740;BME280;354;42.694;23.336;2023-02-22T15:40:16;94994.09;;;15.70;52.32
740;BME280;354;42.694;23.336;2023-02-22T15:42:49;94994.59;;;15.67;52.55
740;BME280;354;42.694;23.336;2023-02-22T15:45:19;94999.50;;;15.59;52.71
740;BME280;354;42.694;23.336;2023-02-22T15:47:48;94996.78;;;15.53;53.08
740;BME280;354;42.694;23.336;2023-02-22T15:52:51;95002.09;;;15.53;53.33
740;BME280;354;42.694;23.336;2023-02-22T15:55:18;94987.38;;;15.41;53.76
740;BME280;354;42.694;23.336;2023-02-22T15:57:44;95001.34;;;15.36;54.13
740;BME280;354;42.694;23.336;2023-02-22T16:00:22;95008.63;;;15.24;54.57
740;BME280;354;42.694;23.336;2023-02-22T16:02:48;94998.75;;;15.19;54.60
740;BME280;354;42.694;23.336;2023-02-22T16:05:16;95008.00;;;15.17;54.79
740;BME280;354;42.694;23.336;2023-02-22T16:07:49;95013.47;;;15.10;55.21
740;BME280;354;42.694;23.336;2023-02-22T16:10:28;95012.59;;;15.05;55.53